Terminal Aerodrome Forecast
Issued by NWS Detroit/Pontiac, MI

Home | Current Version | Previous Version | Text Only | Print | Product List | Glossary On
Versions: 1 2 3 4 5 6 7 8 9 10 11 12 13 14 15 16 17
636
FTUS43 KDTX 081742 CCA
TAFFNT
TAF COR
KFNT 081742Z 0818/0918 VRB05KT P6SM SCT020 OVC100
      TEMPO 0818/0820 BKN020
     FM082000 30005KT P6SM SCT015 OVC080
      TEMPO 0820/0822 BKN015
     FM082200 31007KT 6SM -SHSN OVC018
     FM090500 31008KT 3SM -SHSN BR OVC012
     FM091300 31012G20KT 2SM -SHSN OVC010=

USA.gov is the U.S. government's official web portal to all federal, state and local government web resources and services.